Time;durP1;ratioP1;P1;durP2;ratioP2;P2;SDS_P1;SDS_P2;PMS_P1;PMS_P2;Temp;Humidity;BMP_temperature;BMP_pressure;BME280_temperature;BME280_humidity;BME280_pressure;Samples;Min_cycle;Max_cycle;Signal;HPM_P1;HPM_P2
2023/07/10 00:02:07;;;;;;;2.53;2.43;;;24.00;45.80;;;;;;4995557;28;20261;-62
2023/07/10 00:04:32;;;;;;;2.57;2.47;;;24.00;46.60;;;;;;4993166;28;20297;-63
2023/07/10 00:06:58;;;;;;;2.80;2.70;;;24.00;45.80;;;;;;4997009;28;20960;-61
2023/07/10 00:09:23;;;;;;;2.60;2.50;;;24.00;45.80;;;;;;4994814;28;20215;-62
2023/07/10 00:11:50;;;;;;;2.77;2.67;;;24.00;45.80;;;;;;4996641;28;20323;-61
2023/07/10 00:14:19;;;;;;;2.50;2.40;;;24.00;45.80;;;;;;4995692;28;20269;-64
2023/07/10 00:16:45;;;;;;;2.60;2.50;;;24.00;45.80;;;;;;4996576;28;20469;-62
2023/07/10 00:19:11;;;;;;;2.47;2.37;;;24.00;45.80;;;;;;4983158;28;20474;-61
2023/07/10 00:21:37;;;;;;;2.93;2.73;;;24.00;45.80;;;;;;4995956;28;20468;-61
2023/07/10 00:24:03;;;;;;;2.53;2.43;;;24.00;45.80;;;;;;4993779;28;21012;-62
2023/07/10 00:26:29;;;;;;;2.60;2.50;;;24.00;45.90;;;;;;4997064;28;20227;-62
2023/07/10 00:29:14;;;;;;;2.37;2.27;;;24.00;45.90;;;;;;4998055;28;20238;-61
2023/07/10 00:31:40;;;;;;;13.90;2.87;;;24.00;45.90;;;;;;4994637;28;20227;-62
2023/07/10 00:34:15;;;;;;;3.00;2.80;;;24.00;45.90;;;;;;4995459;28;20449;-62
2023/07/10 00:36:41;;;;;;;3.33;2.73;;;24.00;45.90;;;;;;4997159;28;20232;-62
2023/07/10 00:39:32;;;;;;;2.90;2.80;;;24.00;45.80;;;;;;4995161;28;20496;-63
2023/07/10 00:41:59;;;;;;;2.30;2.20;;;24.00;45.90;;;;;;4990056;28;20444;-62
2023/07/10 00:44:36;;;;;;;2.43;2.33;;;24.00;45.90;;;;;;4994529;28;21016;-61
2023/07/10 00:47:33;;;;;;;3.00;2.90;;;24.00;46.00;;;;;;4996196;28;20440;-64
2023/07/10 00:50:10;;;;;;;2.60;2.50;;;24.00;45.90;;;;;;4996426;28;21043;-62
2023/07/10 00:52:40;;;;;;;2.50;2.40;;;24.00;45.90;;;;;;4995524;28;20531;-63
2023/07/10 00:55:41;;;;;;;2.63;2.53;;;24.00;45.90;;;;;;4994267;28;21319;-63
2023/07/10 00:58:19;;;;;;;2.23;2.13;;;24.00;45.90;;;;;;4990657;28;20723;-62
2023/07/10 01:01:14;;;;;;;2.60;2.50;;;24.00;45.90;;;;;;4998150;28;20465;-61
2023/07/10 01:03:40;;;;;;;2.30;2.20;;;24.00;45.90;;;;;;4994926;28;20453;-63
2023/07/10 01:06:28;;;;;;;2.83;2.73;;;24.00;45.90;;;;;;4994693;28;20485;-62
2023/07/10 01:09:05;;;;;;;2.80;2.60;;;24.00;45.90;;;;;;4991228;28;20457;-61
2023/07/10 01:11:32;;;;;;;2.80;2.70;;;24.00;45.90;;;;;;4996230;28;20463;-65
2023/07/10 01:13:59;;;;;;;2.63;2.53;;;24.00;46.10;;;;;;4977019;28;20529;-62
2023/07/10 01:16:27;;;;;;;3.00;2.80;;;24.00;46.00;;;;;;4995146;28;20454;-62
2023/07/10 01:18:53;;;;;;;2.90;2.70;;;24.00;45.90;;;;;;4993680;28;20630;-61
2023/07/10 01:21:19;;;;;;;3.13;3.00;;;24.00;45.90;;;;;;4992807;28;20900;-61
2023/07/10 01:23:45;;;;;;;2.80;2.60;;;24.00;45.90;;;;;;4992560;28;20223;-61
2023/07/10 01:26:11;;;;;;;2.67;2.57;;;24.00;45.90;;;;;;4994913;28;20456;-64
2023/07/10 01:28:37;;;;;;;2.63;2.53;;;24.00;45.90;;;;;;4993571;28;20254;-61
2023/07/10 01:31:08;;;;;;;2.57;2.47;;;24.00;45.90;;;;;;4994891;28;20238;-63
2023/07/10 01:33:39;;;;;;;2.60;2.50;;;24.00;45.90;;;;;;4995094;28;20223;-62
2023/07/10 01:36:07;;;;;;;3.27;3.07;;;24.00;45.90;;;;;;4994918;28;20487;-65
2023/07/10 01:38:48;;;;;;;2.80;2.60;;;24.00;45.90;;;;;;4993876;28;20472;-62
2023/07/10 01:41:32;;;;;;;2.30;2.20;;;24.00;45.90;;;;;;4983641;28;20464;-62
2023/07/10 01:43:58;;;;;;;2.37;2.27;;;24.00;46.00;;;;;;4994948;28;20454;-62
2023/07/10 01:46:26;;;;;;;2.53;2.43;;;24.00;46.00;;;;;;4994449;28;20511;-61
2023/07/10 01:49:00;;;;;;;2.50;2.30;;;24.00;46.00;;;;;;4995648;28;20223;-62
2023/07/10 01:51:25;;;;;;;2.37;2.27;;;24.00;46.00;;;;;;4994933;28;20453;-62
2023/07/10 01:53:51;;;;;;;2.60;2.50;;;24.00;45.90;;;;;;4995919;28;20456;-61
2023/07/10 01:56:19;;;;;;;2.80;2.70;;;24.00;46.00;;;;;;4982979;28;20227;-62
2023/07/10 01:58:45;;;;;;;2.30;2.20;;;24.00;46.00;;;;;;4993883;28;20228;-64
2023/07/10 02:01:11;;;;;;;3.00;2.90;;;24.00;46.00;;;;;;4996473;28;20527;-61
2023/07/10 02:03:36;;;;;;;2.90;2.80;;;24.00;46.00;;;;;;4994444;28;20613;-61
2023/07/10 02:06:02;;;;;;;2.53;2.43;;;24.00;46.00;;;;;;4996733;28;20306;-63
2023/07/10 02:08:28;;;;;;;2.63;2.53;;;24.00;46.00;;;;;;5003640;28;20230;-61
2023/07/10 02:10:53;;;;;;;2.60;2.50;;;24.00;46.00;;;;;;4996191;28;20487;-61
2023/07/10 02:13:19;;;;;;;2.23;2.13;;;24.00;46.00;;;;;;4997309;28;20223;-62
2023/07/10 02:15:45;;;;;;;2.47;2.37;;;24.00;46.00;;;;;;4999074;28;20302;-62
2023/07/10 02:18:10;;;;;;;2.80;2.70;;;24.00;46.10;;;;;;4999830;28;20651;-62
2023/07/10 02:20:36;;;;;;;2.40;2.20;;;24.00;46.10;;;;;;4998681;28;20241;-62
2023/07/10 02:23:01;;;;;;;2.50;2.40;;;24.00;46.00;;;;;;4998398;28;20219;-61
2023/07/10 02:25:27;;;;;;;2.63;2.53;;;24.00;46.00;;;;;;4998932;28;20333;-62
2023/07/10 02:27:52;;;;;;;2.60;2.50;;;24.00;46.00;;;;;;4999698;28;20223;-62
2023/07/10 02:30:18;;;;;;;2.10;2.00;;;24.00;46.00;;;;;;4998732;28;20224;-61
2023/07/10 02:32:44;;;;;;;2.07;1.97;;;24.00;46.00;;;;;;4997759;28;20563;-65
2023/07/10 02:35:10;;;;;;;2.60;2.50;;;24.00;46.80;;;;;;4997029;28;21143;-62
2023/07/10 02:37:35;;;;;;;2.20;2.10;;;24.00;46.00;;;;;;4998544;28;20260;-63
2023/07/10 02:40:01;;;;;;;2.90;2.80;;;24.00;46.00;;;;;;4996436;28;20235;-63
2023/07/10 02:42:27;;;;;;;2.20;2.10;;;24.00;46.00;;;;;;4999552;28;20228;-65
2023/07/10 02:44:52;;;;;;;2.70;2.60;;;24.00;46.00;;;;;;4996883;28;20243;-61
2023/07/10 02:47:18;;;;;;;2.43;2.33;;;24.00;46.00;;;;;;4997066;28;20454;-62
2023/07/10 02:49:43;;;;;;;2.80;2.70;;;24.00;46.10;;;;;;4996046;28;20216;-62
2023/07/10 02:52:09;;;;;;;2.70;2.50;;;24.00;46.10;;;;;;4995217;28;20227;-62
2023/07/10 02:54:35;;;;;;;2.43;2.33;;;24.00;46.00;;;;;;4997111;28;20597;-62
2023/07/10 02:57:00;;;;;;;2.80;2.70;;;24.00;46.00;;;;;;4996911;28;20232;-61
2023/07/10 02:59:27;;;;;;;2.50;2.40;;;24.00;46.10;;;;;;4999190;28;20773;-61
2023/07/10 03:01:53;;;;;;;3.40;3.00;;;24.00;46.00;;;;;;4997581;28;20655;-62
2023/07/10 03:04:18;;;;;;;2.67;2.57;;;24.00;46.10;;;;;;4995339;28;20877;-61
2023/07/10 03:06:47;;;;;;;2.80;2.60;;;24.00;46.10;;;;;;4998590;28;20492;-61
2023/07/10 03:09:13;;;;;;;2.50;2.30;;;24.00;46.10;;;;;;4994840;28;20588;-64
2023/07/10 03:11:39;;;;;;;2.60;2.50;;;24.00;46.10;;;;;;4997173;28;20992;-62
2023/07/10 03:14:04;;;;;;;2.50;2.40;;;24.00;46.10;;;;;;4994343;28;20227;-62
2023/07/10 03:16:30;;;;;;;2.90;2.80;;;24.00;46.10;;;;;;4997538;28;20266;-62
2023/07/10 03:18:55;;;;;;;2.80;2.67;;;24.00;46.10;;;;;;4994485;28;20240;-63
2023/07/10 03:21:21;;;;;;;2.50;2.40;;;24.00;46.10;;;;;;4996263;28;20231;-61
2023/07/10 03:23:48;;;;;;;2.70;2.60;;;24.00;46.10;;;;;;4995186;28;20482;-61
2023/07/10 03:26:14;;;;;;;2.43;2.33;;;24.00;46.10;;;;;;4997725;28;20679;-61
2023/07/10 03:28:39;;;;;;;2.73;2.57;;;24.00;46.10;;;;;;4996211;28;20449;-61
2023/07/10 03:31:06;;;;;;;2.50;2.40;;;24.00;46.10;;;;;;4995012;28;20231;-62
2023/07/10 03:33:32;;;;;;;2.53;2.33;;;24.00;46.10;;;;;;4997149;28;20568;-63
2023/07/10 03:36:05;;;;;;;2.67;2.57;;;24.00;46.10;;;;;;4999598;28;20564;-63
2023/07/10 03:38:31;;;;;;;2.63;2.53;;;24.00;46.10;;;;;;4996767;28;20472;-62
2023/07/10 03:40:57;;;;;;;2.20;2.10;;;24.00;46.10;;;;;;4997530;28;20824;-63
2023/07/10 03:43:23;;;;;;;3.07;2.87;;;24.00;46.10;;;;;;4995385;28;20239;-61
2023/07/10 03:45:49;;;;;;;2.60;2.50;;;24.00;46.10;;;;;;4998407;28;20806;-61
2023/07/10 03:48:15;;;;;;;2.40;2.30;;;24.00;46.90;;;;;;4995091;28;20464;-62
2023/07/10 03:50:41;;;;;;;2.60;2.50;;;24.00;46.10;;;;;;4996053;28;20224;-64
2023/07/10 03:53:06;;;;;;;2.40;2.30;;;24.00;46.20;;;;;;4994869;28;20223;-62
2023/07/10 03:55:32;;;;;;;2.63;2.53;;;24.00;46.10;;;;;;4998201;28;20285;-62
2023/07/10 03:57:57;;;;;;;2.60;2.50;;;24.00;46.20;;;;;;4993938;28;20235;-63
2023/07/10 04:00:23;;;;;;;2.57;2.47;;;24.00;46.20;;;;;;4996370;28;20237;-62
2023/07/10 04:02:48;;;;;;;2.30;2.20;;;24.00;46.20;;;;;;4998099;28;20932;-62
2023/07/10 04:05:14;;;;;;;2.50;2.40;;;24.00;46.10;;;;;;4996836;28;20241;-61
2023/07/10 04:07:39;;;;;;;2.67;2.47;;;24.00;46.10;;;;;;4994221;28;20753;-62
2023/07/10 04:10:05;;;;;;;2.80;2.70;;;24.00;46.20;;;;;;4997305;28;20219;-63
2023/07/10 04:12:31;;;;;;;2.40;2.30;;;24.00;46.20;;;;;;4983291;28;20227;-63
2023/07/10 04:14:56;;;;;;;2.20;2.10;;;24.00;46.20;;;;;;4995591;28;20247;-63
2023/07/10 04:17:22;;;;;;;2.77;2.67;;;24.00;46.10;;;;;;4995995;28;20258;-62
2023/07/10 04:19:48;;;;;;;2.37;2.27;;;24.00;46.20;;;;;;4995051;28;20790;-61
2023/07/10 04:22:13;;;;;;;2.53;2.43;;;24.00;46.10;;;;;;4998614;28;20752;-61
2023/07/10 04:24:39;;;;;;;2.63;2.53;;;24.00;46.20;;;;;;4993432;28;20220;-62
2023/07/10 04:27:04;;;;;;;2.43;2.23;;;24.00;46.20;;;;;;4992289;28;20226;-62
2023/07/10 04:29:30;;;;;;;2.40;2.30;;;24.00;46.20;;;;;;4993476;28;20720;-62
2023/07/10 04:31:55;;;;;;;2.50;2.40;;;24.00;46.20;;;;;;4996825;28;20317;-61
2023/07/10 04:34:21;;;;;;;2.67;2.57;;;24.00;46.20;;;;;;4991719;28;20227;-62
2023/07/10 04:36:46;;;;;;;2.60;2.50;;;24.00;47.00;;;;;;4992519;28;20219;-61
2023/07/10 04:39:12;;;;;;;2.40;2.30;;;24.00;46.10;;;;;;4993690;28;20226;-62
2023/07/10 04:41:38;;;;;;;2.57;2.47;;;24.00;46.20;;;;;;4997925;28;20693;-61
2023/07/10 04:44:04;;;;;;;2.43;2.33;;;24.00;46.90;;;;;;4993572;28;20351;-62
2023/07/10 04:46:30;;;;;;;2.50;2.40;;;24.00;46.20;;;;;;4995920;28;20992;-63
2023/07/10 04:48:56;;;;;;;2.37;2.27;;;24.00;46.10;;;;;;4992867;28;20219;-61
2023/07/10 04:51:22;;;;;;;2.40;2.30;;;24.00;46.10;;;;;;4992622;28;20483;-62
2023/07/10 04:53:48;;;;;;;2.40;2.30;;;24.00;46.10;;;;;;4993707;28;20265;-61
2023/07/10 04:56:16;;;;;;;2.83;2.70;;;24.00;46.10;;;;;;4997143;28;20227;-61
2023/07/10 04:58:49;;;;;;;2.23;2.13;;;24.00;46.00;;;;;;4992801;28;20476;-62
2023/07/10 05:01:14;;;;;;;2.73;2.53;;;24.00;46.00;;;;;;4993646;28;20465;-61
2023/07/10 05:03:40;;;;;;;2.30;2.20;;;24.00;46.00;;;;;;4994530;28;20509;-61
2023/07/10 05:06:05;;;;;;;2.50;2.40;;;24.00;46.00;;;;;;4997271;28;20577;-61
2023/07/10 05:08:31;;;;;;;2.70;2.60;;;24.00;46.00;;;;;;4995542;28;20679;-62
2023/07/10 05:10:56;;;;;;;2.40;2.30;;;24.10;46.10;;;;;;4993884;28;20223;-62
2023/07/10 05:13:24;;;;;;;4.83;2.40;;;24.10;46.10;;;;;;4993559;28;20617;-62
2023/07/10 05:15:50;;;;;;;2.60;2.50;;;24.10;46.10;;;;;;4995984;28;20234;-62
2023/07/10 05:18:16;;;;;;;2.27;2.17;;;24.10;46.10;;;;;;4993664;28;20469;-61
2023/07/10 05:20:46;;;;;;;2.50;2.40;;;24.10;46.10;;;;;;4993428;28;20708;-61
2023/07/10 05:23:12;;;;;;;2.50;2.40;;;24.10;46.10;;;;;;4993235;28;20231;-61
2023/07/10 05:25:38;;;;;;;2.87;2.67;;;24.10;46.10;;;;;;4983257;28;20457;-61
2023/07/10 05:28:04;;;;;;;2.23;2.13;;;24.10;46.10;;;;;;4995249;28;20559;-63
2023/07/10 05:30:30;;;;;;;2.40;2.30;;;24.10;46.10;;;;;;4994616;28;20734;-61
2023/07/10 05:32:55;;;;;;;2.43;2.33;;;24.10;46.10;;;;;;4994102;28;20237;-62
2023/07/10 05:35:21;;;;;;;2.27;2.17;;;24.10;46.10;;;;;;4993767;28;20461;-61
2023/07/10 05:37:47;;;;;;;2.53;2.43;;;24.10;46.10;;;;;;4995811;28;20215;-61
2023/07/10 05:40:13;;;;;;;2.33;2.23;;;24.10;46.10;;;;;;4995432;28;20231;-61
2023/07/10 05:42:39;;;;;;;2.33;2.23;;;24.10;46.10;;;;;;4993734;28;21096;-61
2023/07/10 05:45:05;;;;;;;2.30;2.20;;;24.10;46.10;;;;;;4991392;28;20274;-64
2023/07/10 05:47:31;;;;;;;2.47;2.37;;;24.10;46.10;;;;;;4994555;28;20223;-61
2023/07/10 05:49:56;;;;;;;2.77;2.67;;;24.10;46.10;;;;;;4992525;28;20476;-61
2023/07/10 05:52:22;;;;;;;2.27;2.17;;;24.10;46.10;;;;;;4991790;28;20238;-61
2023/07/10 05:54:47;;;;;;;2.30;2.20;;;24.10;46.10;;;;;;4992481;28;20225;-63
2023/07/10 05:57:13;;;;;;;2.40;2.30;;;24.10;46.10;;;;;;4983076;28;20227;-62
2023/07/10 05:59:39;;;;;;;2.67;2.57;;;24.10;46.20;;;;;;4995768;28;20266;-62
2023/07/10 06:02:04;;;;;;;3.03;2.70;;;24.10;46.20;;;;;;4994582;28;20253;-61
2023/07/10 06:04:30;;;;;;;2.97;2.80;;;24.10;46.10;;;;;;4994208;28;20215;-62
2023/07/10 06:06:55;;;;;;;2.20;2.10;;;24.10;46.20;;;;;;4994149;28;20346;-62
2023/07/10 06:09:21;;;;;;;2.73;2.63;;;24.10;46.10;;;;;;4993174;28;20227;-62
2023/07/10 06:11:46;;;;;;;2.40;2.30;;;24.10;46.10;;;;;;4993981;28;20223;-61
2023/07/10 06:14:12;;;;;;;2.43;2.33;;;24.10;46.20;;;;;;4993650;28;20214;-61
2023/07/10 06:16:37;;;;;;;2.40;2.30;;;24.10;46.20;;;;;;4994357;28;20313;-61
2023/07/10 06:19:03;;;;;;;2.47;2.37;;;24.10;46.20;;;;;;4992459;28;20325;-63
2023/07/10 06:21:28;;;;;;;2.30;2.20;;;24.10;46.20;;;;;;4995256;28;20227;-61
2023/07/10 06:23:54;;;;;;;2.40;2.30;;;24.10;46.20;;;;;;4994522;28;20270;-62
2023/07/10 06:26:19;;;;;;;2.57;2.47;;;24.10;46.20;;;;;;4995705;28;20219;-62
2023/07/10 06:28:45;;;;;;;2.37;2.13;;;24.10;46.20;;;;;;4981040;28;20220;-62
2023/07/10 06:31:11;;;;;;;2.40;2.30;;;24.10;46.20;;;;;;4995318;28;20236;-63
2023/07/10 06:33:38;;;;;;;2.30;2.20;;;24.10;46.20;;;;;;4995821;28;20227;-62
2023/07/10 06:36:04;;;;;;;2.53;2.43;;;24.10;46.20;;;;;;4996260;28;20231;-61
2023/07/10 06:38:31;;;;;;;2.13;2.03;;;24.10;46.20;;;;;;4992294;28;20465;-61
2023/07/10 06:40:57;;;;;;;2.40;2.30;;;24.10;46.20;;;;;;4995590;28;20453;-65
2023/07/10 06:43:23;;;;;;;2.40;2.30;;;24.10;46.20;;;;;;4993798;28;22700;-61
2023/07/10 06:45:49;;;;;;;2.60;2.50;;;24.20;46.30;;;;;;4995199;28;20220;-62
2023/07/10 06:48:15;;;;;;;2.97;2.70;;;24.10;46.20;;;;;;4991898;28;20446;-62
2023/07/10 06:50:44;;;;;;;2.00;1.90;;;24.10;46.20;;;;;;4993549;28;20519;-62
2023/07/10 06:53:10;;;;;;;2.73;2.63;;;24.20;46.30;;;;;;4992852;28;20250;-62
2023/07/10 06:55:35;;;;;;;2.30;2.20;;;24.20;46.30;;;;;;5000617;28;20477;-64
2023/07/10 06:58:01;;;;;;;2.13;2.03;;;24.20;46.30;;;;;;4998067;28;20668;-61
2023/07/10 07:00:26;;;;;;;2.20;2.10;;;24.20;46.30;;;;;;4999140;28;20230;-63
2023/07/10 07:02:52;;;;;;;2.30;2.20;;;24.20;46.30;;;;;;4995108;28;21914;-62
2023/07/10 07:05:18;;;;;;;2.67;2.47;;;24.20;46.40;;;;;;4997347;28;20227;-61
2023/07/10 07:07:43;;;;;;;2.27;2.17;;;24.20;46.30;;;;;;4996814;28;20219;-61
2023/07/10 07:10:13;;;;;;;2.37;2.27;;;24.20;46.40;;;;;;4996236;28;20243;-62
2023/07/10 07:12:40;;;;;;;2.50;2.40;;;24.20;46.40;;;;;;4995474;28;20215;-61
2023/07/10 07:15:07;;;;;;;2.10;2.00;;;24.20;46.30;;;;;;4978837;28;20470;-62
2023/07/10 07:17:32;;;;;;;2.53;2.43;;;24.20;46.40;;;;;;4997986;28;20468;-62
2023/07/10 07:19:58;;;;;;;2.50;2.40;;;24.20;46.40;;;;;;4997830;28;21582;-65
2023/07/10 07:22:23;;;;;;;2.60;2.50;;;24.20;46.40;;;;;;4998615;28;20227;-62
2023/07/10 07:24:49;;;;;;;2.43;2.33;;;24.20;46.30;;;;;;4994656;28;20215;-63
2023/07/10 07:27:15;;;;;;;2.37;2.27;;;24.20;46.40;;;;;;4997825;28;20257;-63
2023/07/10 07:29:41;;;;;;;2.20;2.10;;;24.20;46.40;;;;;;4996729;28;20567;-62
2023/07/10 07:32:10;;;;;;;2.27;2.17;;;24.20;46.40;;;;;;4995105;28;20465;-62
2023/07/10 07:34:35;;;;;;;2.20;2.10;;;24.20;46.30;;;;;;4996444;28;20574;-63
2023/07/10 07:37:01;;;;;;;2.30;2.13;;;24.30;46.40;;;;;;4997038;28;20457;-61
2023/07/10 07:39:30;;;;;;;2.03;1.93;;;24.20;46.30;;;;;;4996125;28;20235;-62
2023/07/10 07:41:56;;;;;;;2.10;2.00;;;24.20;46.30;;;;;;4995465;28;20227;-62
2023/07/10 07:44:22;;;;;;;2.00;1.90;;;24.20;46.40;;;;;;4996750;28;20476;-63
2023/07/10 07:46:47;;;;;;;2.20;2.10;;;24.20;46.30;;;;;;4995445;28;20544;-65
2023/07/10 07:49:13;;;;;;;2.03;1.93;;;24.30;46.50;;;;;;4998560;28;20226;-64
2023/07/10 07:51:39;;;;;;;1.93;1.83;;;24.20;46.40;;;;;;4997564;28;20239;-62
2023/07/10 07:54:08;;;;;;;2.40;2.30;;;24.20;46.40;;;;;;4992945;28;20220;-62
2023/07/10 07:56:34;;;;;;;2.57;2.37;;;24.30;46.50;;;;;;4997065;28;20218;-63
2023/07/10 07:58:59;;;;;;;2.50;2.40;;;24.30;46.50;;;;;;4994497;28;20472;-62
2023/07/10 08:01:25;;;;;;;2.33;2.23;;;24.30;46.50;;;;;;4995855;28;20227;-64
2023/07/10 08:03:50;;;;;;;1.90;1.80;;;24.30;46.50;;;;;;4995629;28;20238;-64
2023/07/10 08:06:16;;;;;;;2.30;2.20;;;24.30;46.50;;;;;;4997799;28;20231;-66
2023/07/10 08:08:41;;;;;;;2.17;2.07;;;24.30;46.50;;;;;;4995029;28;20230;-61
2023/07/10 08:11:07;;;;;;;2.33;2.23;;;24.30;46.50;;;;;;4996442;28;20219;-64
2023/07/10 08:13:33;;;;;;;2.40;2.20;;;24.30;46.80;;;;;;4996804;28;20219;-65
2023/07/10 08:15:58;;;;;;;2.13;2.03;;;24.30;46.50;;;;;;4999070;28;20219;-62
2023/07/10 08:18:24;;;;;;;2.00;1.90;;;24.30;46.50;;;;;;4996414;28;20238;-62
2023/07/10 08:20:50;;;;;;;2.40;2.30;;;24.30;46.50;;;;;;4997461;28;20716;-62
2023/07/10 08:23:16;;;;;;;1.80;1.70;;;24.30;46.60;;;;;;4996334;28;20234;-65
2023/07/10 08:25:42;;;;;;;2.37;2.17;;;24.30;46.50;;;;;;4995912;28;20461;-62
2023/07/10 08:28:07;;;;;;;2.10;2.00;;;24.30;46.50;;;;;;4977667;28;20453;-63
2023/07/10 08:30:33;;;;;;;2.20;2.10;;;24.30;46.50;;;;;;4995836;28;20222;-63
2023/07/10 08:32:59;;;;;;;2.20;2.10;;;24.30;46.50;;;;;;4996376;28;20254;-62
2023/07/10 08:35:24;;;;;;;2.27;2.17;;;24.30;46.50;;;;;;4982893;28;20693;-62
2023/07/10 08:37:50;;;;;;;2.00;1.90;;;24.30;46.50;;;;;;4994218;28;20672;-62
2023/07/10 08:40:29;;;;;;;2.43;2.33;;;24.30;46.50;;;;;;4996813;28;20702;-62
2023/07/10 08:42:55;;;;;;;2.07;1.90;;;24.30;46.50;;;;;;4993921;28;20222;-62
2023/07/10 08:45:41;;;;;;;2.30;2.20;;;24.30;46.50;;;;;;4996607;28;20702;-62
2023/07/10 08:48:22;;;;;;;1.97;1.87;;;24.30;46.40;;;;;;4993993;28;20452;-63
2023/07/10 08:50:48;;;;;;;2.00;1.90;;;24.30;46.50;;;;;;4996090;28;20476;-63
2023/07/10 08:53:21;;;;;;;1.97;1.87;;;24.30;46.50;;;;;;4992771;28;20465;-63
2023/07/10 08:56:03;;;;;;;2.40;2.30;;;24.30;46.50;;;;;;4995977;28;20227;-62
2023/07/10 08:58:33;;;;;;;2.00;1.90;;;24.30;46.50;;;;;;4995017;28;20471;-63
2023/07/10 09:01:09;;;;;;;2.00;1.90;;;24.30;46.50;;;;;;4995722;28;20500;-63
2023/07/10 09:03:46;;;;;;;2.07;1.97;;;24.30;46.50;;;;;;4993171;28;21103;-63
2023/07/10 09:06:21;;;;;;;1.80;1.70;;;24.30;46.60;;;;;;4993836;28;20493;-63
2023/07/10 09:08:51;;;;;;;1.80;1.70;;;24.30;46.50;;;;;;4997025;28;20469;-63
2023/07/10 09:11:17;;;;;;;1.97;1.87;;;24.30;46.50;;;;;;4996142;28;20480;-63
2023/07/10 09:13:54;;;;;;;2.10;2.00;;;24.30;46.50;;;;;;4996206;28;20453;-63
2023/07/10 09:16:20;;;;;;;2.00;1.90;;;24.30;46.50;;;;;;4995221;28;20572;-63
2023/07/10 09:18:52;;;;;;;2.10;2.00;;;24.30;46.50;;;;;;4992783;28;20513;-63
2023/07/10 09:21:25;;;;;;;1.67;1.57;;;24.30;46.50;;;;;;4996863;28;20510;-64
2023/07/10 09:23:51;;;;;;;1.90;1.80;;;24.30;46.50;;;;;;4993333;28;20471;-63
2023/07/10 09:26:25;;;;;;;1.90;1.80;;;24.30;46.50;;;;;;4998442;28;20457;-63
2023/07/10 09:29:11;;;;;;;1.77;1.67;;;24.30;46.50;;;;;;4992757;28;20981;-62
2023/07/10 09:31:47;;;;;;;2.20;2.10;;;24.40;46.60;;;;;;4996345;28;20488;-62
2023/07/10 09:34:13;;;;;;;1.90;1.80;;;24.30;46.50;;;;;;4992603;28;20461;-63
2023/07/10 09:36:39;;;;;;;2.00;1.90;;;24.40;46.60;;;;;;4996222;28;20485;-64
2023/07/10 09:39:05;;;;;;;2.00;1.90;;;24.30;46.50;;;;;;4993658;28;20933;-63
2023/07/10 09:41:31;;;;;;;1.67;1.57;;;24.40;46.60;;;;;;4995354;28;20223;-64
2023/07/10 09:44:04;;;;;;;2.10;2.00;;;24.40;46.70;;;;;;4993678;28;21063;-64
2023/07/10 09:46:31;;;;;;;2.27;2.17;;;24.40;46.60;;;;;;4996989;28;20495;-62
2023/07/10 09:49:01;;;;;;;1.70;1.60;;;24.40;46.70;;;;;;4979260;28;20821;-62
2023/07/10 09:51:28;;;;;;;1.90;1.80;;;24.40;46.70;;;;;;4995915;28;20452;-62
2023/07/10 09:54:03;;;;;;;1.90;1.80;;;24.40;46.70;;;;;;4993686;28;20543;-63
2023/07/10 09:56:36;;;;;;;1.83;1.73;;;24.40;46.70;;;;;;4994500;28;20449;-62
2023/07/10 09:59:23;;;;;;;1.80;1.70;;;24.40;46.70;;;;;;4995712;28;20960;-63
2023/07/10 10:01:51;;;;;;;1.90;1.80;;;24.40;46.80;;;;;;4993116;28;20459;-63
2023/07/10 10:04:26;;;;;;;1.70;1.60;;;24.40;46.70;;;;;;4992956;28;20516;-63
2023/07/10 10:07:04;;;;;;;1.80;1.70;;;24.40;46.70;;;;;;4993209;28;20457;-63
2023/07/10 10:09:31;;;;;;;1.73;1.63;;;24.40;46.70;;;;;;4991928;28;20500;-63
2023/07/10 10:12:22;;;;;;;2.10;2.00;;;24.40;46.70;;;;;;4994398;28;20587;-64
2023/07/10 10:15:10;;;;;;;1.90;1.80;;;24.40;46.70;;;;;;4992323;28;20571;-62
2023/07/10 10:17:42;;;;;;;1.97;1.87;;;24.40;46.70;;;;;;4994769;28;20448;-62
2023/07/10 10:20:19;;;;;;;1.73;1.63;;;24.40;46.70;;;;;;4994906;28;20477;-62
2023/07/10 10:22:46;;;;;;;1.80;1.70;;;24.40;46.70;;;;;;4993532;28;20460;-62
2023/07/10 10:25:16;;;;;;;1.60;1.50;;;24.40;46.70;;;;;;4992040;28;20464;-62
2023/07/10 10:28:25;;;;;;;1.73;1.63;;;24.40;46.60;;;;;;4994920;28;20454;-62
2023/07/10 10:30:58;;;;;;;1.73;1.63;;;24.40;46.60;;;;;;4983703;28;20468;-62
2023/07/10 10:33:58;;;;;;;1.77;1.67;;;24.40;46.70;;;;;;4999439;28;20437;-63
2023/07/10 10:36:40;;;;;;;1.80;1.70;;;24.40;46.60;;;;;;4994660;28;20556;-62
2023/07/10 10:39:20;;;;;;;1.70;1.60;;;24.40;46.70;;;;;;4996917;28;20486;-63
2023/07/10 10:41:55;;;;;;;1.60;1.50;;;24.40;46.60;;;;;;4999442;28;20464;-64
2023/07/10 10:44:33;;;;;;;1.53;1.43;;;24.40;46.70;;;;;;4997436;28;20464;-62
2023/07/10 10:47:13;;;;;;;1.50;1.40;;;24.40;47.40;;;;;;5002130;28;20448;-62
2023/07/10 10:50:02;;;;;;;1.73;1.63;;;24.40;46.60;;;;;;4995236;28;20843;-64
2023/07/10 10:52:39;;;;;;;1.97;1.87;;;24.40;47.40;;;;;;4998471;28;20460;-64
2023/07/10 10:55:42;;;;;;;1.53;1.43;;;24.40;46.70;;;;;;4997915;28;20457;-63
2023/07/10 10:58:22;;;;;;;1.50;1.40;;;24.40;46.60;;;;;;4998335;28;20911;-63
2023/07/10 11:01:12;;;;;;;1.47;1.37;;;24.40;46.70;;;;;;4997395;28;20479;-64
2023/07/10 11:03:56;;;;;;;1.67;1.57;;;24.40;46.70;;;;;;4995854;28;20552;-64
2023/07/10 11:06:30;;;;;;;1.50;1.40;;;24.40;46.60;;;;;;4998743;28;20577;-62
2023/07/10 11:09:00;;;;;;;1.70;1.60;;;24.40;47.40;;;;;;4993836;28;20500;-63
2023/07/10 11:11:31;;;;;;;1.50;1.40;;;24.40;46.70;;;;;;4998977;28;20606;-63
2023/07/10 11:13:59;;;;;;;1.97;1.87;;;24.50;46.70;;;;;;4997405;28;20920;-62
2023/07/10 11:16:28;;;;;;;1.40;1.30;;;24.50;46.70;;;;;;4999178;28;20499;-62
2023/07/10 11:18:54;;;;;;;1.50;1.40;;;24.50;46.70;;;;;;4996975;28;20840;-62
2023/07/10 11:21:21;;;;;;;1.70;1.60;;;24.50;46.70;;;;;;4997598;28;20456;-63
2023/07/10 11:23:51;;;;;;;1.70;1.60;;;24.50;46.60;;;;;;4995283;28;20266;-62
2023/07/10 11:26:27;;;;;;;1.30;1.20;;;24.50;46.60;;;;;;4997519;28;20468;-64
2023/07/10 11:28:59;;;;;;;1.70;1.60;;;24.50;46.60;;;;;;4997561;28;20451;-62
2023/07/10 11:31:31;;;;;;;1.63;1.53;;;24.50;46.60;;;;;;4997380;28;20464;-63
2023/07/10 11:34:06;;;;;;;1.70;1.60;;;24.50;46.60;;;;;;4997136;28;20449;-64
2023/07/10 11:36:34;;;;;;;1.60;1.50;;;24.50;46.60;;;;;;4996979;28;20590;-63
2023/07/10 11:39:06;;;;;;;1.87;1.77;;;24.50;46.60;;;;;;4995783;28;21343;-63
2023/07/10 11:41:37;;;;;;;1.80;1.70;;;24.50;46.60;;;;;;4994512;28;20576;-64
2023/07/10 11:44:20;;;;;;;1.50;1.40;;;24.50;46.60;;;;;;4997223;28;21098;-63
2023/07/10 11:47:22;;;;;;;1.50;1.40;;;24.50;46.60;;;;;;4996488;28;21044;-62
2023/07/10 11:49:50;;;;;;;1.50;1.40;;;24.50;46.60;;;;;;4995454;28;20572;-62
2023/07/10 11:52:16;;;;;;;1.57;1.47;;;24.50;46.60;;;;;;4998214;28;20516;-63
2023/07/10 11:54:47;;;;;;;1.77;1.67;;;24.50;46.70;;;;;;4994808;28;20488;-63
2023/07/10 11:57:23;;;;;;;1.70;1.60;;;24.50;46.60;;;;;;4999297;28;20223;-62
2023/07/10 11:59:48;;;;;;;1.50;1.40;;;24.50;46.60;;;;;;4994099;28;21403;-63
2023/07/10 12:02:44;;;;;;;1.40;1.30;;;24.50;46.60;;;;;;4999858;28;20914;-62
2023/07/10 12:05:45;;;;;;;1.57;1.47;;;24.50;46.60;;;;;;4993251;28;20242;-64
2023/07/10 12:08:15;;;;;;;1.50;1.40;;;24.50;46.60;;;;;;4996792;28;20579;-64
2023/07/10 12:10:46;;;;;;;1.73;1.63;;;24.50;46.60;;;;;;4995020;28;21059;-63
2023/07/10 12:13:27;;;;;;;1.70;1.60;;;24.50;46.60;;;;;;4996564;28;21024;-62
2023/07/10 12:15:53;;;;;;;1.50;1.40;;;24.50;46.60;;;;;;4994359;28;20576;-62
2023/07/10 12:18:28;;;;;;;1.60;1.50;;;24.50;46.70;;;;;;4996530;28;20485;-62
2023/07/10 12:20:54;;;;;;;1.50;1.40;;;24.50;46.60;;;;;;4998006;28;21034;-63
2023/07/10 12:23:20;;;;;;;1.77;1.40;;;24.50;46.60;;;;;;4993011;28;20507;-65
2023/07/10 12:25:54;;;;;;;1.40;1.30;;;24.50;46.60;;;;;;4995654;28;20581;-63
2023/07/10 12:28:25;;;;;;;1.47;1.37;;;24.50;46.60;;;;;;4993985;28;20594;-63
2023/07/10 12:30:52;;;;;;;1.60;1.50;;;24.50;46.70;;;;;;4992808;28;20569;-63
2023/07/10 12:33:29;;;;;;;1.40;1.30;;;24.50;47.40;;;;;;4992618;28;21004;-63
2023/07/10 12:35:55;;;;;;;1.50;1.40;;;24.50;46.60;;;;;;4993110;28;20486;-64
2023/07/10 12:38:21;;;;;;;1.70;1.60;;;24.50;46.60;;;;;;4997469;28;20440;-62
2023/07/10 12:40:46;;;;;;;1.87;1.77;;;24.50;46.60;;;;;;4995984;28;20230;-62
2023/07/10 12:43:24;;;;;;;1.50;1.40;;;24.50;46.60;;;;;;4993313;28;20445;-63
2023/07/10 12:46:04;;;;;;;1.30;1.20;;;24.50;46.60;;;;;;4996791;28;20219;-63
2023/07/10 12:48:32;;;;;;;1.63;1.53;;;24.50;46.60;;;;;;4994101;28;20457;-63
2023/07/10 12:51:01;;;;;;;1.37;1.27;;;24.50;47.40;;;;;;4995892;28;20453;-62
2023/07/10 12:53:33;;;;;;;1.67;1.57;;;24.50;46.60;;;;;;4994283;28;20473;-63
2023/07/10 12:56:31;;;;;;;1.30;1.20;;;24.50;46.60;;;;;;4995599;28;20469;-62
2023/07/10 12:59:16;;;;;;;1.50;1.40;;;24.50;46.60;;;;;;4993004;28;20469;-63
2023/07/10 13:02:02;;;;;;;1.40;1.30;;;24.50;46.60;;;;;;4995943;28;21036;-63